sensor_id;sensor_type;location;lat;lon;timestamp;P1;durP1;ratioP1;P2;durP2;ratioP2
10094;SDS011;5086;50.830;7.102;2023-05-10T00:02:14;7.55;;;4.05;;
10094;SDS011;5086;50.830;7.102;2023-05-10T00:04:42;8.48;;;4.15;;
10094;SDS011;5086;50.830;7.102;2023-05-10T00:07:10;10.38;;;3.90;;
10094;SDS011;5086;50.830;7.102;2023-05-10T00:09:37;6.10;;;3.75;;
10094;SDS011;5086;50.830;7.102;2023-05-10T00:12:06;10.55;;;3.60;;
10094;SDS011;5086;50.830;7.102;2023-05-10T00:14:37;13.43;;;3.88;;
10094;SDS011;5086;50.830;7.102;2023-05-10T00:17:09;8.35;;;4.00;;
10094;SDS011;5086;50.830;7.102;2023-05-10T00:19:53;5.68;;;3.72;;
10094;SDS011;5086;50.830;7.102;2023-05-10T00:22:23;10.45;;;4.65;;
10094;SDS011;5086;50.830;7.102;2023-05-10T00:24:54;7.85;;;3.80;;
10094;SDS011;5086;50.830;7.102;2023-05-10T00:27:22;15.45;;;3.83;;
10094;SDS011;5086;50.830;7.102;2023-05-10T00:29:49;8.23;;;4.43;;
10094;SDS011;5086;50.830;7.102;2023-05-10T00:32:18;8.10;;;4.30;;
10094;SDS011;5086;50.830;7.102;2023-05-10T00:34:47;5.80;;;3.67;;
10094;SDS011;5086;50.830;7.102;2023-05-10T00:37:15;7.18;;;3.70;;
10094;SDS011;5086;50.830;7.102;2023-05-10T00:39:44;6.20;;;3.40;;
10094;SDS011;5086;50.830;7.102;2023-05-10T00:42:11;11.77;;;3.83;;
10094;SDS011;5086;50.830;7.102;2023-05-10T00:44:41;7.03;;;3.75;;
10094;SDS011;5086;50.830;7.102;2023-05-10T00:47:10;6.32;;;3.47;;
10094;SDS011;5086;50.830;7.102;2023-05-10T00:49:37;6.95;;;3.47;;
10094;SDS011;5086;50.830;7.102;2023-05-10T00:52:05;7.43;;;3.90;;
10094;SDS011;5086;50.830;7.102;2023-05-10T00:54:37;7.28;;;4.20;;
10094;SDS011;5086;50.830;7.102;2023-05-10T00:57:04;5.35;;;3.50;;
10094;SDS011;5086;50.830;7.102;2023-05-10T00:59:38;5.55;;;3.30;;
10094;SDS011;5086;50.830;7.102;2023-05-10T01:02:05;4.63;;;2.80;;
10094;SDS011;5086;50.830;7.102;2023-05-10T01:04:37;5.15;;;2.65;;
10094;SDS011;5086;50.830;7.102;2023-05-10T01:07:08;7.18;;;3.20;;
10094;SDS011;5086;50.830;7.102;2023-05-10T01:09:46;5.03;;;2.72;;
10094;SDS011;5086;50.830;7.102;2023-05-10T01:12:21;3.25;;;2.30;;
10094;SDS011;5086;50.830;7.102;2023-05-10T01:14:48;3.88;;;2.65;;
10094;SDS011;5086;50.830;7.102;2023-05-10T01:17:15;3.90;;;2.55;;
10094;SDS011;5086;50.830;7.102;2023-05-10T01:19:42;7.20;;;2.88;;
10094;SDS011;5086;50.830;7.102;2023-05-10T01:22:13;4.70;;;2.90;;
10094;SDS011;5086;50.830;7.102;2023-05-10T01:28:11;3.45;;;2.53;;
10094;SDS011;5086;50.830;7.102;2023-05-10T01:31:05;10.55;;;2.58;;
10094;SDS011;5086;50.830;7.102;2023-05-10T01:34:19;4.30;;;2.35;;
10094;SDS011;5086;50.830;7.102;2023-05-10T01:37:07;3.63;;;2.20;;
10094;SDS011;5086;50.830;7.102;2023-05-10T01:39:43;3.92;;;2.28;;
10094;SDS011;5086;50.830;7.102;2023-05-10T01:42:14;5.68;;;2.80;;
10094;SDS011;5086;50.830;7.102;2023-05-10T01:44:49;4.05;;;1.90;;
10094;SDS011;5086;50.830;7.102;2023-05-10T01:47:46;3.42;;;1.98;;
10094;SDS011;5086;50.830;7.102;2023-05-10T01:50:19;3.72;;;2.25;;
10094;SDS011;5086;50.830;7.102;2023-05-10T01:52:57;3.83;;;2.30;;
10094;SDS011;5086;50.830;7.102;2023-05-10T01:55:33;2.05;;;1.75;;
10094;SDS011;5086;50.830;7.102;2023-05-10T01:58:06;3.45;;;2.15;;
10094;SDS011;5086;50.830;7.102;2023-05-10T02:00:42;3.63;;;1.95;;
10094;SDS011;5086;50.830;7.102;2023-05-10T02:03:10;2.75;;;2.25;;
10094;SDS011;5086;50.830;7.102;2023-05-10T02:05:46;3.15;;;1.98;;
10094;SDS011;5086;50.830;7.102;2023-05-10T02:08:17;6.97;;;2.10;;
10094;SDS011;5086;50.830;7.102;2023-05-10T02:10:47;2.40;;;1.90;;
10094;SDS011;5086;50.830;7.102;2023-05-10T02:13:28;2.67;;;1.98;;
10094;SDS011;5086;50.830;7.102;2023-05-10T02:15:57;2.05;;;1.50;;
10094;SDS011;5086;50.830;7.102;2023-05-10T02:18:35;2.15;;;1.50;;
10094;SDS011;5086;50.830;7.102;2023-05-10T02:21:04;8.32;;;2.20;;
10094;SDS011;5086;50.830;7.102;2023-05-10T02:23:34;2.17;;;1.70;;
10094;SDS011;5086;50.830;7.102;2023-05-10T02:26:02;3.08;;;1.67;;
10094;SDS011;5086;50.830;7.102;2023-05-10T02:28:31;10.63;;;1.50;;
10094;SDS011;5086;50.830;7.102;2023-05-10T02:30:59;4.88;;;1.50;;
10094;SDS011;5086;50.830;7.102;2023-05-10T02:33:27;3.47;;;2.05;;
10094;SDS011;5086;50.830;7.102;2023-05-10T02:35:55;2.70;;;1.80;;
10094;SDS011;5086;50.830;7.102;2023-05-10T02:38:24;3.70;;;1.95;;
10094;SDS011;5086;50.830;7.102;2023-05-10T02:40:52;3.40;;;2.47;;
10094;SDS011;5086;50.830;7.102;2023-05-10T02:43:21;2.78;;;2.10;;
10094;SDS011;5086;50.830;7.102;2023-05-10T02:45:51;2.55;;;2.08;;
10094;SDS011;5086;50.830;7.102;2023-05-10T02:48:18;4.40;;;2.38;;
10094;SDS011;5086;50.830;7.102;2023-05-10T02:50:47;2.67;;;1.95;;
10094;SDS011;5086;50.830;7.102;2023-05-10T02:53:18;2.63;;;1.98;;
10094;SDS011;5086;50.830;7.102;2023-05-10T02:55:52;3.58;;;2.10;;
10094;SDS011;5086;50.830;7.102;2023-05-10T02:58:29;9.35;;;2.10;;
10094;SDS011;5086;50.830;7.102;2023-05-10T03:00:56;2.97;;;2.20;;
10094;SDS011;5086;50.830;7.102;2023-05-10T03:03:23;3.60;;;2.00;;
10094;SDS011;5086;50.830;7.102;2023-05-10T03:05:50;3.80;;;2.72;;
10094;SDS011;5086;50.830;7.102;2023-05-10T03:08:34;8.48;;;2.42;;
10094;SDS011;5086;50.830;7.102;2023-05-10T03:11:10;4.00;;;2.55;;
10094;SDS011;5086;50.830;7.102;2023-05-10T03:14:02;8.82;;;2.92;;
10094;SDS011;5086;50.830;7.102;2023-05-10T03:16:44;5.18;;;2.72;;
10094;SDS011;5086;50.830;7.102;2023-05-10T03:19:15;6.63;;;3.00;;
10094;SDS011;5086;50.830;7.102;2023-05-10T03:21:47;6.75;;;2.70;;
10094;SDS011;5086;50.830;7.102;2023-05-10T03:24:20;8.88;;;3.92;;
10094;SDS011;5086;50.830;7.102;2023-05-10T03:26:50;7.53;;;3.85;;
10094;SDS011;5086;50.830;7.102;2023-05-10T03:29:22;5.95;;;3.22;;
10094;SDS011;5086;50.830;7.102;2023-05-10T03:31:51;5.97;;;3.67;;
10094;SDS011;5086;50.830;7.102;2023-05-10T03:34:22;9.13;;;4.20;;
10094;SDS011;5086;50.830;7.102;2023-05-10T03:36:53;7.35;;;4.00;;
10094;SDS011;5086;50.830;7.102;2023-05-10T03:39:20;10.05;;;3.83;;
10094;SDS011;5086;50.830;7.102;2023-05-10T03:41:47;11.70;;;4.80;;
10094;SDS011;5086;50.830;7.102;2023-05-10T03:44:15;10.75;;;5.03;;
10094;SDS011;5086;50.830;7.102;2023-05-10T03:46:42;13.57;;;5.43;;
10094;SDS011;5086;50.830;7.102;2023-05-10T03:49:12;9.40;;;4.30;;
10094;SDS011;5086;50.830;7.102;2023-05-10T03:51:38;14.35;;;5.93;;
10094;SDS011;5086;50.830;7.102;2023-05-10T03:54:08;11.70;;;5.18;;
10094;SDS011;5086;50.830;7.102;2023-05-10T03:56:38;16.73;;;6.75;;
10094;SDS011;5086;50.830;7.102;2023-05-10T03:59:05;18.02;;;5.70;;
10094;SDS011;5086;50.830;7.102;2023-05-10T04:01:37;17.33;;;5.38;;
10094;SDS011;5086;50.830;7.102;2023-05-10T04:04:04;12.02;;;5.82;;
10094;SDS011;5086;50.830;7.102;2023-05-10T04:06:31;14.70;;;6.20;;
10094;SDS011;5086;50.830;7.102;2023-05-10T04:08:58;14.50;;;6.45;;
10094;SDS011;5086;50.830;7.102;2023-05-10T04:11:28;13.48;;;6.35;;
10094;SDS011;5086;50.830;7.102;2023-05-10T04:13:55;12.30;;;6.00;;
10094;SDS011;5086;50.830;7.102;2023-05-10T04:16:23;12.32;;;6.03;;
10094;SDS011;5086;50.830;7.102;2023-05-10T04:18:51;14.00;;;6.00;;
10094;SDS011;5086;50.830;7.102;2023-05-10T04:21:18;12.50;;;5.82;;
10094;SDS011;5086;50.830;7.102;2023-05-10T04:23:45;12.15;;;5.82;;
10094;SDS011;5086;50.830;7.102;2023-05-10T04:26:12;10.88;;;5.97;;
10094;SDS011;5086;50.830;7.102;2023-05-10T04:28:39;13.27;;;5.47;;
10094;SDS011;5086;50.830;7.102;2023-05-10T04:31:07;14.20;;;6.47;;
10094;SDS011;5086;50.830;7.102;2023-05-10T04:33:37;11.82;;;5.57;;
10094;SDS011;5086;50.830;7.102;2023-05-10T04:36:06;14.63;;;6.22;;
10094;SDS011;5086;50.830;7.102;2023-05-10T04:38:33;14.35;;;5.93;;
10094;SDS011;5086;50.830;7.102;2023-05-10T04:41:03;20.23;;;6.18;;
10094;SDS011;5086;50.830;7.102;2023-05-10T04:43:33;16.08;;;7.13;;
10094;SDS011;5086;50.830;7.102;2023-05-10T04:46:01;12.68;;;6.53;;
10094;SDS011;5086;50.830;7.102;2023-05-10T04:48:43;13.52;;;6.68;;
10094;SDS011;5086;50.830;7.102;2023-05-10T04:51:33;18.42;;;6.63;;
10094;SDS011;5086;50.830;7.102;2023-05-10T04:54:06;11.65;;;5.55;;
10094;SDS011;5086;50.830;7.102;2023-05-10T04:56:35;14.18;;;6.68;;
10094;SDS011;5086;50.830;7.102;2023-05-10T04:59:03;15.75;;;6.88;;
10094;SDS011;5086;50.830;7.102;2023-05-10T05:01:30;17.35;;;7.20;;
10094;SDS011;5086;50.830;7.102;2023-05-10T05:04:03;15.48;;;7.38;;
10094;SDS011;5086;50.830;7.102;2023-05-10T05:06:38;15.32;;;7.45;;
10094;SDS011;5086;50.830;7.102;2023-05-10T05:09:12;15.85;;;8.10;;
10094;SDS011;5086;50.830;7.102;2023-05-10T05:11:39;16.83;;;7.10;;
10094;SDS011;5086;50.830;7.102;2023-05-10T05:14:07;17.95;;;7.88;;
10094;SDS011;5086;50.830;7.102;2023-05-10T05:16:34;16.15;;;7.43;;
10094;SDS011;5086;50.830;7.102;2023-05-10T05:19:04;15.55;;;7.18;;
10094;SDS011;5086;50.830;7.102;2023-05-10T05:21:31;15.23;;;7.07;;
10094;SDS011;5086;50.830;7.102;2023-05-10T05:24:00;16.48;;;8.10;;
10094;SDS011;5086;50.830;7.102;2023-05-10T05:26:37;19.05;;;7.47;;
10094;SDS011;5086;50.830;7.102;2023-05-10T05:29:04;19.92;;;8.20;;
10094;SDS011;5086;50.830;7.102;2023-05-10T05:31:31;18.33;;;7.60;;
10094;SDS011;5086;50.830;7.102;2023-05-10T05:33:58;22.25;;;9.02;;
10094;SDS011;5086;50.830;7.102;2023-05-10T05:36:27;17.35;;;7.93;;
10094;SDS011;5086;50.830;7.102;2023-05-10T05:38:54;16.33;;;8.15;;
10094;SDS011;5086;50.830;7.102;2023-05-10T05:41:22;18.77;;;8.25;;
10094;SDS011;5086;50.830;7.102;2023-05-10T05:43:53;16.83;;;7.88;;
10094;SDS011;5086;50.830;7.102;2023-05-10T05:46:23;15.60;;;6.80;;
10094;SDS011;5086;50.830;7.102;2023-05-10T05:48:51;20.10;;;7.57;;
10094;SDS011;5086;50.830;7.102;2023-05-10T05:51:17;17.60;;;7.38;;
10094;SDS011;5086;50.830;7.102;2023-05-10T05:53:45;18.27;;;8.65;;
10094;SDS011;5086;50.830;7.102;2023-05-10T05:56:12;15.65;;;7.15;;
10094;SDS011;5086;50.830;7.102;2023-05-10T05:58:41;18.35;;;7.30;;
10094;SDS011;5086;50.830;7.102;2023-05-10T06:01:08;21.30;;;8.10;;
10094;SDS011;5086;50.830;7.102;2023-05-10T06:03:35;17.75;;;8.27;;
10094;SDS011;5086;50.830;7.102;2023-05-10T06:06:02;21.58;;;9.05;;
10094;SDS011;5086;50.830;7.102;2023-05-10T06:08:31;22.30;;;8.55;;
10094;SDS011;5086;50.830;7.102;2023-05-10T06:10:58;15.88;;;7.97;;
10094;SDS011;5086;50.830;7.102;2023-05-10T06:13:29;15.90;;;7.28;;
10094;SDS011;5086;50.830;7.102;2023-05-10T06:16:11;18.15;;;7.88;;
10094;SDS011;5086;50.830;7.102;2023-05-10T06:18:38;14.55;;;6.70;;
10094;SDS011;5086;50.830;7.102;2023-05-10T06:21:05;14.20;;;7.25;;
10094;SDS011;5086;50.830;7.102;2023-05-10T06:23:32;20.20;;;6.93;;
10094;SDS011;5086;50.830;7.102;2023-05-10T06:25:59;12.85;;;6.07;;
10094;SDS011;5086;50.830;7.102;2023-05-10T06:28:26;25.92;;;7.55;;
10094;SDS011;5086;50.830;7.102;2023-05-10T06:30:53;26.42;;;8.02;;
10094;SDS011;5086;50.830;7.102;2023-05-10T06:33:21;14.50;;;7.15;;
10094;SDS011;5086;50.830;7.102;2023-05-10T06:35:48;17.10;;;7.90;;
10094;SDS011;5086;50.830;7.102;2023-05-10T06:38:15;13.05;;;6.78;;
10094;SDS011;5086;50.830;7.102;2023-05-10T06:40:42;14.68;;;6.93;;
10094;SDS011;5086;50.830;7.102;2023-05-10T06:43:09;12.90;;;6.07;;
10094;SDS011;5086;50.830;7.102;2023-05-10T06:45:36;11.02;;;5.20;;
10094;SDS011;5086;50.830;7.102;2023-05-10T06:48:11;12.73;;;6.20;;
10094;SDS011;5086;50.830;7.102;2023-05-10T06:50:42;12.13;;;5.53;;
10094;SDS011;5086;50.830;7.102;2023-05-10T06:53:09;11.25;;;5.55;;
10094;SDS011;5086;50.830;7.102;2023-05-10T06:55:36;13.75;;;5.85;;
10094;SDS011;5086;50.830;7.102;2023-05-10T06:58:03;13.88;;;7.18;;
10094;SDS011;5086;50.830;7.102;2023-05-10T07:00:31;15.77;;;6.32;;
10094;SDS011;5086;50.830;7.102;2023-05-10T07:02:58;15.13;;;7.25;;
10094;SDS011;5086;50.830;7.102;2023-05-10T07:05:24;15.98;;;6.40;;
10094;SDS011;5086;50.830;7.102;2023-05-10T07:07:55;14.23;;;6.40;;
10094;SDS011;5086;50.830;7.102;2023-05-10T07:10:22;12.85;;;6.50;;
10094;SDS011;5086;50.830;7.102;2023-05-10T07:12:54;12.55;;;5.90;;
10094;SDS011;5086;50.830;7.102;2023-05-10T07:15:21;12.85;;;5.75;;
10094;SDS011;5086;50.830;7.102;2023-05-10T07:17:47;12.63;;;5.60;;
10094;SDS011;5086;50.830;7.102;2023-05-10T07:20:14;12.40;;;6.70;;
10094;SDS011;5086;50.830;7.102;2023-05-10T07:22:41;12.13;;;5.93;;
10094;SDS011;5086;50.830;7.102;2023-05-10T07:25:10;11.82;;;5.85;;
10094;SDS011;5086;50.830;7.102;2023-05-10T07:27:37;15.02;;;5.95;;
10094;SDS011;5086;50.830;7.102;2023-05-10T07:30:36;11.23;;;5.55;;
10094;SDS011;5086;50.830;7.102;2023-05-10T07:33:03;13.38;;;6.10;;
10094;SDS011;5086;50.830;7.102;2023-05-10T07:35:30;12.85;;;5.72;;
10094;SDS011;5086;50.830;7.102;2023-05-10T07:37:57;11.00;;;5.15;;
10094;SDS011;5086;50.830;7.102;2023-05-10T07:43:23;9.43;;;5.13;;
10094;SDS011;5086;50.830;7.102;2023-05-10T07:46:07;11.27;;;4.68;;
10094;SDS011;5086;50.830;7.102;2023-05-10T07:48:53;7.82;;;4.45;;
10094;SDS011;5086;50.830;7.102;2023-05-10T07:51:34;12.25;;;5.57;;
10094;SDS011;5086;50.830;7.102;2023-05-10T07:54:06;15.07;;;5.97;;
10094;SDS011;5086;50.830;7.102;2023-05-10T07:56:42;10.50;;;5.03;;
10094;SDS011;5086;50.830;7.102;2023-05-10T07:59:14;8.30;;;4.65;;
10094;SDS011;5086;50.830;7.102;2023-05-10T08:01:52;11.48;;;5.85;;
10094;SDS011;5086;50.830;7.102;2023-05-10T08:04:26;11.15;;;5.47;;
10094;SDS011;5086;50.830;7.102;2023-05-10T08:07:03;13.15;;;5.43;;
10094;SDS011;5086;50.830;7.102;2023-05-10T08:09:50;11.57;;;4.60;;
10094;SDS011;5086;50.830;7.102;2023-05-10T08:15:32;9.40;;;4.30;;
10094;SDS011;5086;50.830;7.102;2023-05-10T08:18:02;8.15;;;4.28;;
10094;SDS011;5086;50.830;7.102;2023-05-10T08:20:30;7.20;;;4.20;;
10094;SDS011;5086;50.830;7.102;2023-05-10T08:22:57;6.95;;;3.97;;
10094;SDS011;5086;50.830;7.102;2023-05-10T08:25:28;14.57;;;4.43;;
10094;SDS011;5086;50.830;7.102;2023-05-10T08:38:11;6.45;;;3.88;;
10094;SDS011;5086;50.830;7.102;2023-05-10T08:41:11;6.15;;;3.10;;
10094;SDS011;5086;50.830;7.102;2023-05-10T08:43:59;6.85;;;3.83;;
10094;SDS011;5086;50.830;7.102;2023-05-10T08:46:55;5.95;;;3.50;;
10094;SDS011;5086;50.830;7.102;2023-05-10T08:56:45;5.03;;;2.70;;
10094;SDS011;5086;50.830;7.102;2023-05-10T08:59:39;4.82;;;3.22;;
10094;SDS011;5086;50.830;7.102;2023-05-10T09:02:09;9.00;;;3.88;;
10094;SDS011;5086;50.830;7.102;2023-05-10T09:04:43;6.65;;;3.30;;
10094;SDS011;5086;50.830;7.102;2023-05-10T09:07:13;5.53;;;3.05;;
10094;SDS011;5086;50.830;7.102;2023-05-10T09:09:46;9.10;;;2.70;;
10094;SDS011;5086;50.830;7.102;2023-05-10T09:12:25;2.30;;;2.00;;
10094;SDS011;5086;50.830;7.102;2023-05-10T09:14:55;1.67;;;1.50;;
10094;SDS011;5086;50.830;7.102;2023-05-10T09:17:25;1.13;;;1.00;;
10094;SDS011;5086;50.830;7.102;2023-05-10T09:19:57;2.28;;;1.50;;
10094;SDS011;5086;50.830;7.102;2023-05-10T09:22:25;2.00;;;1.40;;
10094;SDS011;5086;50.830;7.102;2023-05-10T09:25:03;1.60;;;1.50;;
10094;SDS011;5086;50.830;7.102;2023-05-10T09:27:33;2.03;;;1.77;;
10094;SDS011;5086;50.830;7.102;2023-05-10T09:30:00;3.60;;;2.17;;
10094;SDS011;5086;50.830;7.102;2023-05-10T09:32:36;5.47;;;2.22;;
10094;SDS011;5086;50.830;7.102;2023-05-10T09:35:08;4.03;;;1.85;;
10094;SDS011;5086;50.830;7.102;2023-05-10T09:37:35;3.30;;;2.20;;
10094;SDS011;5086;50.830;7.102;2023-05-10T09:40:05;2.33;;;1.45;;
10094;SDS011;5086;50.830;7.102;2023-05-10T09:42:50;3.88;;;1.70;;
10094;SDS011;5086;50.830;7.102;2023-05-10T09:45:18;3.08;;;1.65;;
10094;SDS011;5086;50.830;7.102;2023-05-10T09:48:01;2.05;;;1.70;;
10094;SDS011;5086;50.830;7.102;2023-05-10T09:50:56;1.63;;;1.52;;
10094;SDS011;5086;50.830;7.102;2023-05-10T09:53:24;2.25;;;1.70;;
10094;SDS011;5086;50.830;7.102;2023-05-10T09:55:51;2.45;;;1.60;;
10094;SDS011;5086;50.830;7.102;2023-05-10T09:58:19;2.85;;;2.05;;
10094;SDS011;5086;50.830;7.102;2023-05-10T10:00:46;4.18;;;1.85;;
10094;SDS011;5086;50.830;7.102;2023-05-10T10:03:17;4.45;;;1.95;;
10094;SDS011;5086;50.830;7.102;2023-05-10T10:05:45;4.07;;;2.13;;
10094;SDS011;5086;50.830;7.102;2023-05-10T10:08:13;2.80;;;2.42;;
10094;SDS011;5086;50.830;7.102;2023-05-10T10:10:41;3.72;;;2.63;;
10094;SDS011;5086;50.830;7.102;2023-05-10T10:13:18;9.45;;;4.38;;
10094;SDS011;5086;50.830;7.102;2023-05-10T10:15:48;10.85;;;5.28;;
10094;SDS011;5086;50.830;7.102;2023-05-10T10:18:17;14.02;;;6.10;;
10094;SDS011;5086;50.830;7.102;2023-05-10T10:20:48;12.73;;;6.13;;
10094;SDS011;5086;50.830;7.102;2023-05-10T10:23:19;13.00;;;5.88;;
10094;SDS011;5086;50.830;7.102;2023-05-10T10:25:46;14.32;;;5.93;;
10094;SDS011;5086;50.830;7.102;2023-05-10T10:28:16;18.83;;;6.00;;
10094;SDS011;5086;50.830;7.102;2023-05-10T10:30:52;15.65;;;5.57;;
10094;SDS011;5086;50.830;7.102;2023-05-10T10:33:29;15.10;;;6.55;;
10094;SDS011;5086;50.830;7.102;2023-05-10T10:36:02;17.90;;;6.35;;
10094;SDS011;5086;50.830;7.102;2023-05-10T10:38:36;12.25;;;5.47;;
10094;SDS011;5086;50.830;7.102;2023-05-10T10:41:27;14.88;;;6.18;;
10094;SDS011;5086;50.830;7.102;2023-05-10T10:46:59;13.82;;;5.88;;
10094;SDS011;5086;50.830;7.102;2023-05-10T10:49:48;12.85;;;5.93;;
10094;SDS011;5086;50.830;7.102;2023-05-10T10:52:20;10.85;;;5.45;;
10094;SDS011;5086;50.830;7.102;2023-05-10T10:54:57;11.00;;;4.65;;
10094;SDS011;5086;50.830;7.102;2023-05-10T10:57:26;16.13;;;6.10;;
10094;SDS011;5086;50.830;7.102;2023-05-10T11:03:08;10.43;;;5.63;;
10094;SDS011;5086;50.830;7.102;2023-05-10T11:05:41;12.05;;;6.00;;
10094;SDS011;5086;50.830;7.102;2023-05-10T11:08:14;8.40;;;4.78;;
10094;SDS011;5086;50.830;7.102;2023-05-10T11:10:49;9.68;;;4.75;;
10094;SDS011;5086;50.830;7.102;2023-05-10T11:13:26;10.73;;;5.35;;
10094;SDS011;5086;50.830;7.102;2023-05-10T11:16:09;8.70;;;4.32;;
10094;SDS011;5086;50.830;7.102;2023-05-10T11:18:42;9.00;;;4.32;;
10094;SDS011;5086;50.830;7.102;2023-05-10T11:21:26;6.38;;;3.55;;
10094;SDS011;5086;50.830;7.102;2023-05-10T11:23:55;8.80;;;3.83;;
10094;SDS011;5086;50.830;7.102;2023-05-10T11:26:30;6.00;;;3.55;;
10094;SDS011;5086;50.830;7.102;2023-05-10T11:29:04;8.18;;;4.15;;
10094;SDS011;5086;50.830;7.102;2023-05-10T11:31:31;5.68;;;3.30;;
10094;SDS011;5086;50.830;7.102;2023-05-10T11:34:15;5.35;;;3.10;;
10094;SDS011;5086;50.830;7.102;2023-05-10T11:37:15;5.32;;;3.30;;
10094;SDS011;5086;50.830;7.102;2023-05-10T11:40:01;5.50;;;3.17;;
10094;SDS011;5086;50.830;7.102;2023-05-10T11:42:45;6.28;;;3.30;;
10094;SDS011;5086;50.830;7.102;2023-05-10T11:45:13;7.75;;;3.35;;
10094;SDS011;5086;50.830;7.102;2023-05-10T11:47:42;6.00;;;3.35;;
10094;SDS011;5086;50.830;7.102;2023-05-10T11:59:38;4.75;;;3.13;;
10094;SDS011;5086;50.830;7.102;2023-05-10T12:05:35;3.70;;;2.80;;
10094;SDS011;5086;50.830;7.102;2023-05-10T12:08:15;4.70;;;3.28;;
10094;SDS011;5086;50.830;7.102;2023-05-10T12:10:46;4.68;;;3.45;;
10094;SDS011;5086;50.830;7.102;2023-05-10T12:19:46;4.32;;;2.92;;
10094;SDS011;5086;50.830;7.102;2023-05-10T12:22:20;4.93;;;3.40;;
10094;SDS011;5086;50.830;7.102;2023-05-10T12:24:50;3.83;;;2.65;;
10094;SDS011;5086;50.830;7.102;2023-05-10T12:30:56;3.97;;;2.88;;
10094;SDS011;5086;50.830;7.102;2023-05-10T12:33:35;4.50;;;2.65;;
10094;SDS011;5086;50.830;7.102;2023-05-10T12:36:06;11.65;;;2.85;;
10094;SDS011;5086;50.830;7.102;2023-05-10T12:38:34;3.00;;;2.20;;
10094;SDS011;5086;50.830;7.102;2023-05-10T12:41:18;3.95;;;3.25;;
10094;SDS011;5086;50.830;7.102;2023-05-10T12:43:58;4.95;;;2.72;;
10094;SDS011;5086;50.830;7.102;2023-05-10T12:46:32;4.82;;;2.70;;
10094;SDS011;5086;50.830;7.102;2023-05-10T12:49:03;2.75;;;2.10;;
10094;SDS011;5086;50.830;7.102;2023-05-10T12:51:54;3.88;;;2.80;;
10094;SDS011;5086;50.830;7.102;2023-05-10T12:54:33;3.55;;;2.10;;
10094;SDS011;5086;50.830;7.102;2023-05-10T12:57:01;2.50;;;2.30;;
10094;SDS011;5086;50.830;7.102;2023-05-10T12:59:28;2.73;;;2.10;;
10094;SDS011;5086;50.830;7.102;2023-05-10T13:02:05;4.40;;;2.38;;
10094;SDS011;5086;50.830;7.102;2023-05-10T13:04:36;2.40;;;1.90;;
10094;SDS011;5086;50.830;7.102;2023-05-10T13:07:06;2.50;;;2.20;;
10094;SDS011;5086;50.830;7.102;2023-05-10T13:09:33;6.85;;;2.47;;
10094;SDS011;5086;50.830;7.102;2023-05-10T13:12:00;3.50;;;2.30;;
10094;SDS011;5086;50.830;7.102;2023-05-10T13:14:29;5.75;;;1.90;;
10094;SDS011;5086;50.830;7.102;2023-05-10T13:16:56;4.70;;;1.90;;
10094;SDS011;5086;50.830;7.102;2023-05-10T13:19:23;2.78;;;1.80;;
10094;SDS011;5086;50.830;7.102;2023-05-10T13:21:49;2.15;;;1.95;;
10094;SDS011;5086;50.830;7.102;2023-05-10T13:24:18;3.70;;;1.80;;
10094;SDS011;5086;50.830;7.102;2023-05-10T13:26:46;2.40;;;1.95;;
10094;SDS011;5086;50.830;7.102;2023-05-10T13:29:13;1.65;;;1.55;;
10094;SDS011;5086;50.830;7.102;2023-05-10T13:31:43;6.10;;;1.98;;
10094;SDS011;5086;50.830;7.102;2023-05-10T13:34:16;1.92;;;1.75;;
10094;SDS011;5086;50.830;7.102;2023-05-10T13:36:48;1.70;;;1.55;;
10094;SDS011;5086;50.830;7.102;2023-05-10T13:39:14;2.47;;;1.90;;
10094;SDS011;5086;50.830;7.102;2023-05-10T13:41:43;4.43;;;2.15;;
10094;SDS011;5086;50.830;7.102;2023-05-10T13:44:11;1.52;;;1.42;;
10094;SDS011;5086;50.830;7.102;2023-05-10T13:46:39;4.00;;;1.65;;
10094;SDS011;5086;50.830;7.102;2023-05-10T13:49:06;2.88;;;1.50;;
10094;SDS011;5086;50.830;7.102;2023-05-10T13:51:33;2.47;;;1.98;;
10094;SDS011;5086;50.830;7.102;2023-05-10T13:54:03;2.10;;;1.90;;
10094;SDS011;5086;50.830;7.102;2023-05-10T13:56:36;1.60;;;1.50;;
10094;SDS011;5086;50.830;7.102;2023-05-10T13:59:04;1.40;;;1.30;;
10094;SDS011;5086;50.830;7.102;2023-05-10T14:01:35;1.90;;;1.75;;
10094;SDS011;5086;50.830;7.102;2023-05-10T14:04:04;2.03;;;1.80;;
10094;SDS011;5086;50.830;7.102;2023-05-10T14:06:32;3.08;;;1.77;;
10094;SDS011;5086;50.830;7.102;2023-05-10T14:08:58;1.67;;;1.55;;
10094;SDS011;5086;50.830;7.102;2023-05-10T14:11:26;2.22;;;1.80;;
10094;SDS011;5086;50.830;7.102;2023-05-10T14:13:52;2.75;;;1.73;;
10094;SDS011;5086;50.830;7.102;2023-05-10T14:16:22;1.73;;;1.60;;
10094;SDS011;5086;50.830;7.102;2023-05-10T14:18:50;1.38;;;1.27;;
10094;SDS011;5086;50.830;7.102;2023-05-10T14:21:17;4.63;;;1.95;;
10094;SDS011;5086;50.830;7.102;2023-05-10T14:23:44;1.33;;;1.20;;
10094;SDS011;5086;50.830;7.102;2023-05-10T14:26:17;1.48;;;1.38;;
10094;SDS011;5086;50.830;7.102;2023-05-10T14:28:44;1.70;;;1.60;;
10094;SDS011;5086;50.830;7.102;2023-05-10T14:31:14;2.17;;;1.52;;
10094;SDS011;5086;50.830;7.102;2023-05-10T14:33:43;1.63;;;1.50;;
10094;SDS011;5086;50.830;7.102;2023-05-10T14:36:10;2.00;;;1.50;;
10094;SDS011;5086;50.830;7.102;2023-05-10T14:38:37;1.45;;;1.35;;
10094;SDS011;5086;50.830;7.102;2023-05-10T14:41:04;1.75;;;1.65;;
10094;SDS011;5086;50.830;7.102;2023-05-10T14:43:31;1.80;;;1.65;;
10094;SDS011;5086;50.830;7.102;2023-05-10T14:45:58;1.70;;;1.60;;
10094;SDS011;5086;50.830;7.102;2023-05-10T14:48:25;2.60;;;1.52;;
10094;SDS011;5086;50.830;7.102;2023-05-10T14:50:56;2.20;;;2.00;;
10094;SDS011;5086;50.830;7.102;2023-05-10T14:53:23;1.77;;;1.67;;
10094;SDS011;5086;50.830;7.102;2023-05-10T14:55:56;1.60;;;1.50;;
10094;SDS011;5086;50.830;7.102;2023-05-10T14:58:25;3.53;;;1.90;;
10094;SDS011;5086;50.830;7.102;2023-05-10T15:00:52;2.35;;;1.80;;
10094;SDS011;5086;50.830;7.102;2023-05-10T15:03:19;1.60;;;1.35;;
10094;SDS011;5086;50.830;7.102;2023-05-10T15:05:59;2.67;;;2.00;;
10094;SDS011;5086;50.830;7.102;2023-05-10T15:08:28;3.92;;;1.80;;
10094;SDS011;5086;50.830;7.102;2023-05-10T15:11:02;2.58;;;1.80;;
10094;SDS011;5086;50.830;7.102;2023-05-10T15:13:37;2.00;;;1.80;;
10094;SDS011;5086;50.830;7.102;2023-05-10T15:16:27;2.17;;;1.70;;
10094;SDS011;5086;50.830;7.102;2023-05-10T15:18:57;1.98;;;1.80;;
10094;SDS011;5086;50.830;7.102;2023-05-10T15:21:32;2.65;;;1.80;;
10094;SDS011;5086;50.830;7.102;2023-05-10T15:24:37;1.67;;;1.58;;
10094;SDS011;5086;50.830;7.102;2023-05-10T15:27:27;1.60;;;1.50;;
10094;SDS011;5086;50.830;7.102;2023-05-10T15:30:31;1.40;;;1.30;;
10094;SDS011;5086;50.830;7.102;2023-05-10T15:33:00;1.45;;;1.33;;
10094;SDS011;5086;50.830;7.102;2023-05-10T15:35:39;1.65;;;1.50;;
10094;SDS011;5086;50.830;7.102;2023-05-10T15:38:12;1.90;;;1.65;;
10094;SDS011;5086;50.830;7.102;2023-05-10T15:40:40;2.97;;;1.55;;
10094;SDS011;5086;50.830;7.102;2023-05-10T15:43:37;1.98;;;1.70;;
10094;SDS011;5086;50.830;7.102;2023-05-10T15:46:08;2.53;;;2.00;;
10094;SDS011;5086;50.830;7.102;2023-05-10T15:49:04;2.20;;;2.00;;
10094;SDS011;5086;50.830;7.102;2023-05-10T15:51:50;2.33;;;1.98;;
10094;SDS011;5086;50.830;7.102;2023-05-10T15:54:21;3.75;;;2.00;;
10094;SDS011;5086;50.830;7.102;2023-05-10T15:57:04;3.88;;;2.00;;
10094;SDS011;5086;50.830;7.102;2023-05-10T15:59:53;4.15;;;2.00;;
10094;SDS011;5086;50.830;7.102;2023-05-10T16:02:48;3.90;;;1.80;;
10094;SDS011;5086;50.830;7.102;2023-05-10T16:05:21;3.75;;;2.17;;
10094;SDS011;5086;50.830;7.102;2023-05-10T16:07:59;2.65;;;2.00;;
10094;SDS011;5086;50.830;7.102;2023-05-10T16:10:36;2.67;;;1.90;;
10094;SDS011;5086;50.830;7.102;2023-05-10T16:13:04;4.25;;;2.05;;
10094;SDS011;5086;50.830;7.102;2023-05-10T16:15:43;3.00;;;1.70;;
10094;SDS011;5086;50.830;7.102;2023-05-10T16:18:10;5.13;;;2.13;;
10094;SDS011;5086;50.830;7.102;2023-05-10T16:21:07;2.28;;;2.08;;
10094;SDS011;5086;50.830;7.102;2023-05-10T16:23:34;3.33;;;2.30;;